This is the latest recevied weather packets stored in our database for station/object IU1OPQ-3. If no packets are shown the sender has not sent any weather packets the latest 1 day(s).
| Time | Temp. | Humidity | Pressure | Rain* | Wind** | Luminosity | Snow |
|---|---|---|---|---|---|---|---|
| 1778009400 | 11.11° C | 98% | 1012.3 hPa | 0 mm | 0.45 m/s, 85° | - | - |
| 1778008501 | 11.67° C | 98% | 1012.2 hPa | 0 mm | 1.34 m/s, 76° | - | - |
| 1778007601 | 11.11° C | 98% | 1012.3 hPa | 0 mm | 0.45 m/s, 91° | - | - |
| 1778006700 | 11.11° C | 98% | 1012.2 hPa | 0 mm | 0.89 m/s, 88° | - | - |
| 1778005801 | 11.67° C | 97% | 1012.1 hPa | 0 mm | 1.34 m/s, 114° | - | - |
| 1778004901 | 11.67° C | 97% | 1012.2 hPa | 0 mm | 1.34 m/s, 96° | - | - |
| 1778004001 | 11.67° C | 96% | 1012.3 hPa | 0.25 mm | 0 m/s | - | - |
| 1778003100 | 11.67° C | 96% | 1012.1 hPa | 0.25 mm | 0 m/s | - | - |
| 1778002200 | 11.67° C | 95% | 1012.3 hPa | 0.25 mm | 0.89 m/s, 2° | - | - |
| 1778001300 | 11.67° C | 94% | 1012.3 hPa | 0 mm | 0 m/s | - | - |
| 1778000400 | 11.67° C | 94% | 1012.3 hPa | 0 mm | 0.89 m/s, 128° | - | - |
| 1777999500 | 12.22° C | 93% | 1012.1 hPa | 0 mm | 0 m/s | - | - |
| 1777998600 | 12.22° C | 91% | 1012.4 hPa | 0 mm | 0 m/s | - | - |
| 1777997701 | 12.78° C | 89% | 1012.4 hPa | 0 mm | 0 m/s | - | - |
| 1777996801 | 12.22° C | 91% | 1012.1 hPa | 0 mm | 0 m/s | - | - |
| 1777995901 | 12.78° C | 89% | 1012.5 hPa | 0 mm | 0.45 m/s, 211° | - | - |
| 1777995000 | 12.78° C | 88% | 1012.7 hPa | 0 mm | 0.89 m/s, 131° | - | - |
| 1777994100 | 11.67° C | 93% | 1012.7 hPa | 0 mm | 0.45 m/s, 127° | - | - |
| 1777993201 | 11.11° C | 94% | 1012.7 hPa | 0 mm | 0 m/s | - | - |
| 1777992300 | 11.11° C | 94% | 1012.4 hPa | 0 mm | 0.45 m/s, 180° | - | - |
| 1777991401 | 11.67° C | 93% | 1012.9 hPa | 0 mm | 0.89 m/s, 179° | - | - |
| 1777990501 | 11.11° C | 94% | 1012.9 hPa | 0 mm | 0 m/s | - | - |
| 1777989600 | 11.11° C | 95% | 1013 hPa | 0 mm | 0.89 m/s, 231° | - | - |
| 1777988701 | 10.56° C | 96% | 1012.8 hPa | 0 mm | 0.89 m/s, 201° | - | - |
| 1777987801 | 10.56° C | 98% | 1013 hPa | 0 mm | 0.89 m/s, 244° | - | - |
* Rain latest hour (hover to see other rain measurements)
** Current wind speed in m/s (hover to see current wind gust speed)